Airport View

Enter AWOS ICAO identifier for current METAR.

ex. KFNL

K1K1 190635Z AUTO 35012G15KT 10SM BKN055 09/03 A3002 RMK AO2 T00870030

19 Apr 2019 06:56

Frequency: 118.3

Phone: 316-530-6004

Other Area AWOS: KAAO - K3AU - KBEC - KIAB

TAF KIAB 190200Z 1902/2008 34015G25KT 9999 BKN050 QNH2991INS BECMG 1908/1909 34012KT 9999 SCT050 QNH2994INS BECMG 1914/1915 35020G25KT 9999 SKC 510053 QNH3004INS BECMG 1923/1924 VRB06KT 9999 SKC QNH3001INS TX17/1921Z TN06/1912Z